sensor_id;sensor_type;location;lat;lon;timestamp;P1;durP1;ratioP1;P2;durP2;ratioP2
46288;SDS011;63105;46.158;14.604;2023-03-31T00:01:53;4.10;;;2.20;;
46288;SDS011;63105;46.158;14.604;2023-03-31T00:04:21;4.68;;;2.30;;
46288;SDS011;63105;46.158;14.604;2023-03-31T00:06:47;4.22;;;2.22;;
46288;SDS011;63105;46.158;14.604;2023-03-31T00:09:13;4.43;;;2.50;;
46288;SDS011;63105;46.158;14.604;2023-03-31T00:11:42;4.65;;;2.30;;
46288;SDS011;63105;46.158;14.604;2023-03-31T00:14:08;5.53;;;2.80;;
46288;SDS011;63105;46.158;14.604;2023-03-31T00:16:34;4.93;;;2.80;;
46288;SDS011;63105;46.158;14.604;2023-03-31T00:18:59;5.05;;;2.92;;
46288;SDS011;63105;46.158;14.604;2023-03-31T00:21:26;5.43;;;3.15;;
46288;SDS011;63105;46.158;14.604;2023-03-31T00:24:01;5.20;;;3.25;;
46288;SDS011;63105;46.158;14.604;2023-03-31T00:26:27;6.03;;;2.72;;
46288;SDS011;63105;46.158;14.604;2023-03-31T00:28:52;5.20;;;3.10;;
46288;SDS011;63105;46.158;14.604;2023-03-31T00:31:18;6.15;;;3.83;;
46288;SDS011;63105;46.158;14.604;2023-03-31T00:33:43;6.25;;;3.50;;
46288;SDS011;63105;46.158;14.604;2023-03-31T00:36:08;5.60;;;3.17;;
46288;SDS011;63105;46.158;14.604;2023-03-31T00:38:34;6.25;;;3.70;;
46288;SDS011;63105;46.158;14.604;2023-03-31T00:40:59;6.43;;;3.40;;
46288;SDS011;63105;46.158;14.604;2023-03-31T00:43:26;5.72;;;3.05;;
46288;SDS011;63105;46.158;14.604;2023-03-31T00:45:53;4.68;;;2.80;;
46288;SDS011;63105;46.158;14.604;2023-03-31T00:48:19;4.68;;;2.60;;
46288;SDS011;63105;46.158;14.604;2023-03-31T00:50:47;5.45;;;3.00;;
46288;SDS011;63105;46.158;14.604;2023-03-31T00:53:15;4.75;;;2.78;;
46288;SDS011;63105;46.158;14.604;2023-03-31T00:55:46;4.57;;;2.50;;
46288;SDS011;63105;46.158;14.604;2023-03-31T00:58:13;4.85;;;2.40;;
46288;SDS011;63105;46.158;14.604;2023-03-31T01:00:44;4.65;;;2.33;;
46288;SDS011;63105;46.158;14.604;2023-03-31T01:03:11;4.40;;;2.30;;
46288;SDS011;63105;46.158;14.604;2023-03-31T01:05:44;4.13;;;2.15;;
46288;SDS011;63105;46.158;14.604;2023-03-31T01:08:11;5.50;;;2.10;;
46288;SDS011;63105;46.158;14.604;2023-03-31T01:10:39;4.38;;;2.40;;
46288;SDS011;63105;46.158;14.604;2023-03-31T01:13:06;4.57;;;2.70;;
46288;SDS011;63105;46.158;14.604;2023-03-31T01:15:32;5.50;;;2.72;;
46288;SDS011;63105;46.158;14.604;2023-03-31T01:17:57;5.63;;;2.55;;
46288;SDS011;63105;46.158;14.604;2023-03-31T01:25:41;4.50;;;2.20;;
46288;SDS011;63105;46.158;14.604;2023-03-31T01:33:34;4.35;;;2.10;;
46288;SDS011;63105;46.158;14.604;2023-03-31T01:36:21;4.78;;;2.35;;
46288;SDS011;63105;46.158;14.604;2023-03-31T01:46:29;3.83;;;1.88;;
46288;SDS011;63105;46.158;14.604;2023-03-31T01:49:06;3.72;;;2.00;;
46288;SDS011;63105;46.158;14.604;2023-03-31T01:57:00;3.88;;;1.90;;
46288;SDS011;63105;46.158;14.604;2023-03-31T01:59:49;3.72;;;1.90;;
46288;SDS011;63105;46.158;14.604;2023-03-31T02:02:18;3.55;;;1.80;;
46288;SDS011;63105;46.158;14.604;2023-03-31T02:04:47;3.25;;;1.70;;
46288;SDS011;63105;46.158;14.604;2023-03-31T02:07:58;3.72;;;1.70;;
46288;SDS011;63105;46.158;14.604;2023-03-31T02:09:59;3.53;;;1.80;;
46288;SDS011;63105;46.158;14.604;2023-03-31T02:12:26;3.63;;;1.60;;
46288;SDS011;63105;46.158;14.604;2023-03-31T02:14:52;4.70;;;1.75;;
46288;SDS011;63105;46.158;14.604;2023-03-31T02:17:19;4.18;;;1.92;;
46288;SDS011;63105;46.158;14.604;2023-03-31T02:19:47;2.97;;;1.60;;
46288;SDS011;63105;46.158;14.604;2023-03-31T02:22:14;3.70;;;1.73;;
46288;SDS011;63105;46.158;14.604;2023-03-31T02:24:40;3.40;;;1.67;;
46288;SDS011;63105;46.158;14.604;2023-03-31T02:27:09;3.42;;;1.73;;
46288;SDS011;63105;46.158;14.604;2023-03-31T02:29:35;3.40;;;1.67;;
46288;SDS011;63105;46.158;14.604;2023-03-31T02:34:35;3.80;;;1.55;;
46288;SDS011;63105;46.158;14.604;2023-03-31T02:37:00;4.13;;;2.00;;
46288;SDS011;63105;46.158;14.604;2023-03-31T02:39:30;3.13;;;1.67;;
46288;SDS011;63105;46.158;14.604;2023-03-31T02:41:57;3.95;;;1.70;;
46288;SDS011;63105;46.158;14.604;2023-03-31T02:44:22;4.18;;;1.65;;
46288;SDS011;63105;46.158;14.604;2023-03-31T02:46:48;3.75;;;1.77;;
46288;SDS011;63105;46.158;14.604;2023-03-31T02:49:14;3.38;;;1.70;;
46288;SDS011;63105;46.158;14.604;2023-03-31T03:17:32;8.70;;;4.85;;
46288;SDS011;63105;46.158;14.604;2023-03-31T03:19:59;8.40;;;4.05;;
46288;SDS011;63105;46.158;14.604;2023-03-31T03:22:25;5.38;;;2.88;;
46288;SDS011;63105;46.158;14.604;2023-03-31T03:24:50;4.00;;;2.22;;
46288;SDS011;63105;46.158;14.604;2023-03-31T03:27:16;6.35;;;2.60;;
46288;SDS011;63105;46.158;14.604;2023-03-31T03:29:41;5.13;;;3.03;;
46288;SDS011;63105;46.158;14.604;2023-03-31T03:32:07;5.07;;;2.90;;
46288;SDS011;63105;46.158;14.604;2023-03-31T03:34:33;5.78;;;2.80;;
46288;SDS011;63105;46.158;14.604;2023-03-31T03:36:58;5.65;;;2.67;;
46288;SDS011;63105;46.158;14.604;2023-03-31T03:39:23;4.15;;;2.33;;
46288;SDS011;63105;46.158;14.604;2023-03-31T03:41:48;4.63;;;2.63;;
46288;SDS011;63105;46.158;14.604;2023-03-31T03:44:14;4.90;;;2.03;;
46288;SDS011;63105;46.158;14.604;2023-03-31T03:46:39;5.50;;;3.03;;
46288;SDS011;63105;46.158;14.604;2023-03-31T03:49:04;6.43;;;3.28;;
46288;SDS011;63105;46.158;14.604;2023-03-31T03:51:30;5.47;;;3.00;;
46288;SDS011;63105;46.158;14.604;2023-03-31T03:53:55;4.63;;;2.60;;
46288;SDS011;63105;46.158;14.604;2023-03-31T03:56:20;5.50;;;2.83;;
46288;SDS011;63105;46.158;14.604;2023-03-31T03:58:46;4.97;;;2.60;;
46288;SDS011;63105;46.158;14.604;2023-03-31T04:01:11;5.40;;;2.80;;
46288;SDS011;63105;46.158;14.604;2023-03-31T04:03:36;4.43;;;2.30;;
46288;SDS011;63105;46.158;14.604;2023-03-31T04:06:01;5.00;;;2.75;;
46288;SDS011;63105;46.158;14.604;2023-03-31T04:08:27;6.35;;;2.90;;
46288;SDS011;63105;46.158;14.604;2023-03-31T04:10:52;4.78;;;2.63;;
46288;SDS011;63105;46.158;14.604;2023-03-31T04:13:18;4.20;;;2.40;;
46288;SDS011;63105;46.158;14.604;2023-03-31T04:15:44;5.25;;;2.40;;
46288;SDS011;63105;46.158;14.604;2023-03-31T04:18:09;6.13;;;2.85;;
46288;SDS011;63105;46.158;14.604;2023-03-31T04:20:37;7.55;;;3.72;;
46288;SDS011;63105;46.158;14.604;2023-03-31T04:23:03;8.05;;;4.50;;
46288;SDS011;63105;46.158;14.604;2023-03-31T04:25:29;8.80;;;4.80;;
46288;SDS011;63105;46.158;14.604;2023-03-31T04:27:55;6.90;;;3.70;;
46288;SDS011;63105;46.158;14.604;2023-03-31T04:30:23;6.35;;;3.40;;
46288;SDS011;63105;46.158;14.604;2023-03-31T04:32:56;5.20;;;2.65;;
46288;SDS011;63105;46.158;14.604;2023-03-31T04:35:22;6.93;;;3.55;;
46288;SDS011;63105;46.158;14.604;2023-03-31T04:37:49;7.32;;;3.45;;
46288;SDS011;63105;46.158;14.604;2023-03-31T04:40:14;6.20;;;3.30;;
46288;SDS011;63105;46.158;14.604;2023-03-31T04:42:40;5.70;;;2.85;;
46288;SDS011;63105;46.158;14.604;2023-03-31T04:45:06;5.63;;;3.42;;
46288;SDS011;63105;46.158;14.604;2023-03-31T04:47:31;6.38;;;3.38;;
46288;SDS011;63105;46.158;14.604;2023-03-31T04:49:56;5.43;;;3.00;;
46288;SDS011;63105;46.158;14.604;2023-03-31T04:52:21;10.15;;;4.82;;
46288;SDS011;63105;46.158;14.604;2023-03-31T04:54:47;11.00;;;5.95;;
46288;SDS011;63105;46.158;14.604;2023-03-31T04:57:12;8.05;;;4.53;;
46288;SDS011;63105;46.158;14.604;2023-03-31T04:59:37;7.38;;;3.50;;
46288;SDS011;63105;46.158;14.604;2023-03-31T05:02:02;5.43;;;3.13;;
46288;SDS011;63105;46.158;14.604;2023-03-31T05:04:28;6.45;;;3.13;;
46288;SDS011;63105;46.158;14.604;2023-03-31T05:06:53;6.00;;;3.10;;
46288;SDS011;63105;46.158;14.604;2023-03-31T05:09:18;5.40;;;3.08;;
46288;SDS011;63105;46.158;14.604;2023-03-31T05:11:44;5.93;;;3.05;;
46288;SDS011;63105;46.158;14.604;2023-03-31T05:14:09;5.78;;;2.90;;
46288;SDS011;63105;46.158;14.604;2023-03-31T05:16:35;6.32;;;3.60;;
46288;SDS011;63105;46.158;14.604;2023-03-31T05:19:00;5.68;;;3.10;;
46288;SDS011;63105;46.158;14.604;2023-03-31T05:21:25;4.95;;;3.10;;
46288;SDS011;63105;46.158;14.604;2023-03-31T05:23:52;5.53;;;3.65;;
46288;SDS011;63105;46.158;14.604;2023-03-31T05:26:17;5.72;;;2.70;;
46288;SDS011;63105;46.158;14.604;2023-03-31T05:28:42;4.47;;;2.88;;
46288;SDS011;63105;46.158;14.604;2023-03-31T05:31:08;7.38;;;3.25;;
46288;SDS011;63105;46.158;14.604;2023-03-31T05:33:34;6.45;;;3.70;;
46288;SDS011;63105;46.158;14.604;2023-03-31T05:36:04;6.25;;;3.42;;
46288;SDS011;63105;46.158;14.604;2023-03-31T05:38:29;5.78;;;3.10;;
46288;SDS011;63105;46.158;14.604;2023-03-31T05:40:55;5.53;;;3.05;;
46288;SDS011;63105;46.158;14.604;2023-03-31T05:43:21;5.28;;;2.88;;
46288;SDS011;63105;46.158;14.604;2023-03-31T05:45:46;5.15;;;3.20;;
46288;SDS011;63105;46.158;14.604;2023-03-31T05:48:11;5.97;;;3.13;;
46288;SDS011;63105;46.158;14.604;2023-03-31T05:50:36;4.80;;;2.67;;
46288;SDS011;63105;46.158;14.604;2023-03-31T05:53:02;4.70;;;2.80;;
46288;SDS011;63105;46.158;14.604;2023-03-31T05:55:27;5.90;;;2.83;;
46288;SDS011;63105;46.158;14.604;2023-03-31T05:57:52;4.65;;;2.78;;
46288;SDS011;63105;46.158;14.604;2023-03-31T06:00:18;6.85;;;3.50;;
46288;SDS011;63105;46.158;14.604;2023-03-31T06:02:44;6.68;;;4.20;;
46288;SDS011;63105;46.158;14.604;2023-03-31T06:05:09;6.78;;;4.20;;
46288;SDS011;63105;46.158;14.604;2023-03-31T06:07:34;10.27;;;8.23;;
46288;SDS011;63105;46.158;14.604;2023-03-31T06:10:00;7.70;;;6.43;;
46288;SDS011;63105;46.158;14.604;2023-03-31T06:12:25;6.85;;;5.10;;
46288;SDS011;63105;46.158;14.604;2023-03-31T06:14:50;6.93;;;4.82;;
46288;SDS011;63105;46.158;14.604;2023-03-31T06:17:15;6.38;;;4.07;;
46288;SDS011;63105;46.158;14.604;2023-03-31T06:19:41;4.80;;;3.28;;
46288;SDS011;63105;46.158;14.604;2023-03-31T06:22:06;5.85;;;3.42;;
46288;SDS011;63105;46.158;14.604;2023-03-31T06:24:31;4.65;;;2.85;;
46288;SDS011;63105;46.158;14.604;2023-03-31T06:26:56;5.20;;;3.08;;
46288;SDS011;63105;46.158;14.604;2023-03-31T06:29:22;6.13;;;3.60;;
46288;SDS011;63105;46.158;14.604;2023-03-31T06:31:47;7.30;;;4.43;;
46288;SDS011;63105;46.158;14.604;2023-03-31T06:34:13;6.57;;;4.55;;
46288;SDS011;63105;46.158;14.604;2023-03-31T06:36:38;5.82;;;4.00;;
46288;SDS011;63105;46.158;14.604;2023-03-31T06:39:03;5.47;;;3.35;;
46288;SDS011;63105;46.158;14.604;2023-03-31T06:41:28;5.07;;;3.30;;
46288;SDS011;63105;46.158;14.604;2023-03-31T06:43:54;5.75;;;3.70;;
46288;SDS011;63105;46.158;14.604;2023-03-31T06:46:19;5.18;;;3.10;;
46288;SDS011;63105;46.158;14.604;2023-03-31T06:48:44;5.45;;;3.13;;
46288;SDS011;63105;46.158;14.604;2023-03-31T06:51:10;4.60;;;3.03;;
46288;SDS011;63105;46.158;14.604;2023-03-31T06:53:35;6.38;;;3.20;;
46288;SDS011;63105;46.158;14.604;2023-03-31T06:56:01;5.00;;;3.13;;
46288;SDS011;63105;46.158;14.604;2023-03-31T06:58:26;4.43;;;2.80;;
46288;SDS011;63105;46.158;14.604;2023-03-31T07:00:52;4.43;;;2.70;;
46288;SDS011;63105;46.158;14.604;2023-03-31T07:03:17;5.78;;;3.30;;
46288;SDS011;63105;46.158;14.604;2023-03-31T07:05:52;12.02;;;8.32;;
46288;SDS011;63105;46.158;14.604;2023-03-31T07:08:17;10.68;;;8.13;;
46288;SDS011;63105;46.158;14.604;2023-03-31T07:10:43;18.88;;;13.30;;
46288;SDS011;63105;46.158;14.604;2023-03-31T07:13:11;12.13;;;8.13;;
46288;SDS011;63105;46.158;14.604;2023-03-31T07:15:36;9.73;;;5.97;;
46288;SDS011;63105;46.158;14.604;2023-03-31T07:18:01;8.20;;;4.93;;
46288;SDS011;63105;46.158;14.604;2023-03-31T07:20:27;12.50;;;9.05;;
46288;SDS011;63105;46.158;14.604;2023-03-31T07:22:52;10.27;;;6.85;;
46288;SDS011;63105;46.158;14.604;2023-03-31T07:25:17;8.23;;;5.10;;
46288;SDS011;63105;46.158;14.604;2023-03-31T07:27:43;6.80;;;4.47;;
46288;SDS011;63105;46.158;14.604;2023-03-31T07:30:09;6.55;;;4.50;;
46288;SDS011;63105;46.158;14.604;2023-03-31T07:32:36;6.38;;;4.03;;
46288;SDS011;63105;46.158;14.604;2023-03-31T07:35:04;6.88;;;3.95;;
46288;SDS011;63105;46.158;14.604;2023-03-31T07:37:33;7.07;;;4.00;;
46288;SDS011;63105;46.158;14.604;2023-03-31T07:39:59;6.47;;;4.18;;
46288;SDS011;63105;46.158;14.604;2023-03-31T07:42:24;6.28;;;3.88;;
46288;SDS011;63105;46.158;14.604;2023-03-31T07:44:49;6.97;;;4.00;;
46288;SDS011;63105;46.158;14.604;2023-03-31T07:47:15;9.15;;;5.80;;
46288;SDS011;63105;46.158;14.604;2023-03-31T07:49:40;11.70;;;6.90;;
46288;SDS011;63105;46.158;14.604;2023-03-31T07:52:05;8.93;;;5.40;;
46288;SDS011;63105;46.158;14.604;2023-03-31T07:54:31;7.15;;;4.20;;
46288;SDS011;63105;46.158;14.604;2023-03-31T07:56:56;6.47;;;3.78;;
46288;SDS011;63105;46.158;14.604;2023-03-31T07:59:25;5.95;;;3.88;;
46288;SDS011;63105;46.158;14.604;2023-03-31T08:01:50;6.28;;;4.57;;
46288;SDS011;63105;46.158;14.604;2023-03-31T08:04:15;5.80;;;3.58;;
46288;SDS011;63105;46.158;14.604;2023-03-31T08:06:41;6.18;;;3.47;;
46288;SDS011;63105;46.158;14.604;2023-03-31T08:09:06;6.05;;;3.30;;
46288;SDS011;63105;46.158;14.604;2023-03-31T08:11:32;7.22;;;3.75;;
46288;SDS011;63105;46.158;14.604;2023-03-31T08:13:57;6.25;;;4.05;;
46288;SDS011;63105;46.158;14.604;2023-03-31T08:16:22;6.85;;;4.43;;
46288;SDS011;63105;46.158;14.604;2023-03-31T08:18:47;10.68;;;5.45;;
46288;SDS011;63105;46.158;14.604;2023-03-31T08:21:13;9.63;;;5.28;;
46288;SDS011;63105;46.158;14.604;2023-03-31T08:23:38;10.60;;;5.72;;
46288;SDS011;63105;46.158;14.604;2023-03-31T08:26:21;7.60;;;4.80;;
46288;SDS011;63105;46.158;14.604;2023-03-31T08:28:48;10.27;;;5.53;;
46288;SDS011;63105;46.158;14.604;2023-03-31T08:31:14;7.45;;;4.82;;
46288;SDS011;63105;46.158;14.604;2023-03-31T08:33:40;8.63;;;5.68;;
46288;SDS011;63105;46.158;14.604;2023-03-31T08:36:06;9.10;;;6.32;;
46288;SDS011;63105;46.158;14.604;2023-03-31T08:38:34;8.32;;;5.60;;
46288;SDS011;63105;46.158;14.604;2023-03-31T08:41:02;7.45;;;4.65;;
46288;SDS011;63105;46.158;14.604;2023-03-31T08:43:36;7.38;;;4.72;;
46288;SDS011;63105;46.158;14.604;2023-03-31T08:46:04;9.13;;;5.60;;
46288;SDS011;63105;46.158;14.604;2023-03-31T08:48:35;7.60;;;4.32;;
46288;SDS011;63105;46.158;14.604;2023-03-31T08:51:08;8.10;;;4.97;;
46288;SDS011;63105;46.158;14.604;2023-03-31T08:53:38;7.80;;;5.53;;
46288;SDS011;63105;46.158;14.604;2023-03-31T08:56:06;8.13;;;5.05;;
46288;SDS011;63105;46.158;14.604;2023-03-31T08:58:40;7.75;;;4.75;;
46288;SDS011;63105;46.158;14.604;2023-03-31T09:06:35;8.35;;;5.40;;
46288;SDS011;63105;46.158;14.604;2023-03-31T09:09:02;10.15;;;6.00;;
46288;SDS011;63105;46.158;14.604;2023-03-31T09:19:17;9.07;;;4.55;;
46288;SDS011;63105;46.158;14.604;2023-03-31T09:21:44;10.40;;;5.10;;
46288;SDS011;63105;46.158;14.604;2023-03-31T09:29:03;6.22;;;4.15;;
46288;SDS011;63105;46.158;14.604;2023-03-31T09:31:31;9.18;;;5.20;;
46288;SDS011;63105;46.158;14.604;2023-03-31T09:33:58;9.45;;;4.57;;
46288;SDS011;63105;46.158;14.604;2023-03-31T09:36:25;7.70;;;3.95;;
46288;SDS011;63105;46.158;14.604;2023-03-31T09:38:50;10.52;;;4.22;;
46288;SDS011;63105;46.158;14.604;2023-03-31T09:41:15;7.47;;;3.78;;
46288;SDS011;63105;46.158;14.604;2023-03-31T09:43:42;6.97;;;3.72;;
46288;SDS011;63105;46.158;14.604;2023-03-31T09:46:27;7.20;;;3.78;;
46288;SDS011;63105;46.158;14.604;2023-03-31T09:49:13;7.95;;;4.13;;
46288;SDS011;63105;46.158;14.604;2023-03-31T09:51:41;9.45;;;3.97;;
46288;SDS011;63105;46.158;14.604;2023-03-31T09:56:54;7.63;;;3.38;;
46288;SDS011;63105;46.158;14.604;2023-03-31T09:59:19;9.10;;;3.90;;
46288;SDS011;63105;46.158;14.604;2023-03-31T10:01:45;6.30;;;3.50;;
46288;SDS011;63105;46.158;14.604;2023-03-31T10:04:33;9.05;;;4.63;;
46288;SDS011;63105;46.158;14.604;2023-03-31T10:06:57;6.85;;;3.95;;
46288;SDS011;63105;46.158;14.604;2023-03-31T10:09:24;8.82;;;5.45;;
46288;SDS011;63105;46.158;14.604;2023-03-31T10:12:35;10.32;;;5.35;;
46288;SDS011;63105;46.158;14.604;2023-03-31T10:14:40;7.28;;;4.38;;
46288;SDS011;63105;46.158;14.604;2023-03-31T10:17:05;7.85;;;5.35;;
46288;SDS011;63105;46.158;14.604;2023-03-31T10:19:34;7.68;;;5.18;;
46288;SDS011;63105;46.158;14.604;2023-03-31T10:24:27;7.75;;;4.30;;
46288;SDS011;63105;46.158;14.604;2023-03-31T10:26:59;8.52;;;4.75;;
46288;SDS011;63105;46.158;14.604;2023-03-31T10:29:29;10.93;;;5.72;;
46288;SDS011;63105;46.158;14.604;2023-03-31T10:31:55;9.23;;;4.82;;
46288;SDS011;63105;46.158;14.604;2023-03-31T10:34:26;7.38;;;4.90;;
46288;SDS011;63105;46.158;14.604;2023-03-31T10:36:51;8.55;;;4.88;;
46288;SDS011;63105;46.158;14.604;2023-03-31T10:39:17;7.53;;;5.72;;
46288;SDS011;63105;46.158;14.604;2023-03-31T10:41:43;8.20;;;6.03;;
46288;SDS011;63105;46.158;14.604;2023-03-31T10:44:35;10.23;;;4.90;;
46288;SDS011;63105;46.158;14.604;2023-03-31T10:47:02;8.50;;;5.22;;
46288;SDS011;63105;46.158;14.604;2023-03-31T10:49:28;8.38;;;5.32;;
46288;SDS011;63105;46.158;14.604;2023-03-31T10:51:54;7.05;;;5.28;;
46288;SDS011;63105;46.158;14.604;2023-03-31T10:54:20;6.63;;;4.43;;
46288;SDS011;63105;46.158;14.604;2023-03-31T10:56:46;7.88;;;4.90;;
46288;SDS011;63105;46.158;14.604;2023-03-31T11:06:56;6.95;;;4.10;;
46288;SDS011;63105;46.158;14.604;2023-03-31T11:15:04;6.85;;;4.10;;
46288;SDS011;63105;46.158;14.604;2023-03-31T11:22:50;5.80;;;3.47;;
46288;SDS011;63105;46.158;14.604;2023-03-31T11:32:46;6.65;;;3.95;;
46288;SDS011;63105;46.158;14.604;2023-03-31T11:43:01;8.38;;;4.90;;
46288;SDS011;63105;46.158;14.604;2023-03-31T11:45:33;6.82;;;4.75;;
46288;SDS011;63105;46.158;14.604;2023-03-31T11:48:00;8.38;;;5.03;;
46288;SDS011;63105;46.158;14.604;2023-03-31T11:50:29;8.18;;;5.20;;
46288;SDS011;63105;46.158;14.604;2023-03-31T11:52:57;7.78;;;4.88;;
46288;SDS011;63105;46.158;14.604;2023-03-31T11:55:24;7.70;;;5.30;;
46288;SDS011;63105;46.158;14.604;2023-03-31T12:00:17;9.30;;;6.57;;
46288;SDS011;63105;46.158;14.604;2023-03-31T12:05:09;10.77;;;7.60;;
46288;SDS011;63105;46.158;14.604;2023-03-31T12:12:29;9.70;;;7.03;;
46288;SDS011;63105;46.158;14.604;2023-03-31T12:15:02;9.13;;;5.95;;
46288;SDS011;63105;46.158;14.604;2023-03-31T12:17:29;7.22;;;5.43;;
46288;SDS011;63105;46.158;14.604;2023-03-31T12:20:04;9.38;;;6.47;;
46288;SDS011;63105;46.158;14.604;2023-03-31T12:22:44;8.27;;;5.80;;
46288;SDS011;63105;46.158;14.604;2023-03-31T12:25:10;7.28;;;6.00;;
46288;SDS011;63105;46.158;14.604;2023-03-31T12:27:37;13.23;;;6.65;;
46288;SDS011;63105;46.158;14.604;2023-03-31T12:33:21;9.85;;;6.38;;
46288;SDS011;63105;46.158;14.604;2023-03-31T12:45:42;9.27;;;5.90;;
46288;SDS011;63105;46.158;14.604;2023-03-31T12:51:09;8.32;;;5.35;;
46288;SDS011;63105;46.158;14.604;2023-03-31T12:56:05;9.23;;;5.72;;
46288;SDS011;63105;46.158;14.604;2023-03-31T12:58:34;13.07;;;8.20;;
46288;SDS011;63105;46.158;14.604;2023-03-31T13:11:19;9.95;;;5.75;;
46288;SDS011;63105;46.158;14.604;2023-03-31T13:16:22;9.77;;;5.70;;
46288;SDS011;63105;46.158;14.604;2023-03-31T13:18:51;9.20;;;5.25;;
46288;SDS011;63105;46.158;14.604;2023-03-31T13:21:17;8.60;;;5.50;;
46288;SDS011;63105;46.158;14.604;2023-03-31T13:23:43;10.70;;;7.07;;
46288;SDS011;63105;46.158;14.604;2023-03-31T13:34:38;9.38;;;5.50;;
46288;SDS011;63105;46.158;14.604;2023-03-31T13:44:56;8.93;;;5.27;;
46288;SDS011;63105;46.158;14.604;2023-03-31T13:50:04;7.20;;;4.38;;
46288;SDS011;63105;46.158;14.604;2023-03-31T14:00:31;7.78;;;3.38;;
46288;SDS011;63105;46.158;14.604;2023-03-31T14:05:29;8.57;;;4.22;;
46288;SDS011;63105;46.158;14.604;2023-03-31T14:12:51;9.63;;;4.38;;
46288;SDS011;63105;46.158;14.604;2023-03-31T14:15:20;7.35;;;3.50;;
46288;SDS011;63105;46.158;14.604;2023-03-31T14:17:45;7.65;;;3.22;;
46288;SDS011;63105;46.158;14.604;2023-03-31T14:20:19;6.63;;;2.92;;
46288;SDS011;63105;46.158;14.604;2023-03-31T14:22:47;7.78;;;2.60;;
46288;SDS011;63105;46.158;14.604;2023-03-31T14:33:15;6.82;;;2.85;;
46288;SDS011;63105;46.158;14.604;2023-03-31T14:38:20;6.18;;;2.50;;
46288;SDS011;63105;46.158;14.604;2023-03-31T14:40:47;5.45;;;2.17;;
46288;SDS011;63105;46.158;14.604;2023-03-31T14:43:17;6.15;;;2.38;;
46288;SDS011;63105;46.158;14.604;2023-03-31T14:45:43;8.95;;;2.13;;
46288;SDS011;63105;46.158;14.604;2023-03-31T14:48:10;4.93;;;2.00;;
46288;SDS011;63105;46.158;14.604;2023-03-31T14:50:37;5.60;;;2.22;;
46288;SDS011;63105;46.158;14.604;2023-03-31T14:53:11;5.25;;;2.25;;
46288;SDS011;63105;46.158;14.604;2023-03-31T14:55:37;9.18;;;2.67;;
46288;SDS011;63105;46.158;14.604;2023-03-31T14:58:03;6.75;;;2.75;;
46288;SDS011;63105;46.158;14.604;2023-03-31T15:00:29;6.93;;;2.72;;
46288;SDS011;63105;46.158;14.604;2023-03-31T15:02:55;10.15;;;3.53;;
46288;SDS011;63105;46.158;14.604;2023-03-31T15:05:27;7.82;;;2.88;;
46288;SDS011;63105;46.158;14.604;2023-03-31T15:07:57;4.63;;;1.88;;
46288;SDS011;63105;46.158;14.604;2023-03-31T15:10:23;6.35;;;2.20;;
46288;SDS011;63105;46.158;14.604;2023-03-31T15:12:48;8.23;;;2.45;;
46288;SDS011;63105;46.158;14.604;2023-03-31T15:15:15;7.05;;;2.90;;
46288;SDS011;63105;46.158;14.604;2023-03-31T15:17:41;7.10;;;2.58;;
46288;SDS011;63105;46.158;14.604;2023-03-31T15:22:44;7.50;;;3.08;;
46288;SDS011;63105;46.158;14.604;2023-03-31T15:25:11;13.63;;;5.35;;
46288;SDS011;63105;46.158;14.604;2023-03-31T15:27:39;10.32;;;4.93;;
46288;SDS011;63105;46.158;14.604;2023-03-31T15:30:07;8.00;;;3.45;;
46288;SDS011;63105;46.158;14.604;2023-03-31T15:32:34;7.70;;;3.00;;
46288;SDS011;63105;46.158;14.604;2023-03-31T15:34:59;8.50;;;2.53;;
46288;SDS011;63105;46.158;14.604;2023-03-31T15:37:35;12.32;;;4.35;;
46288;SDS011;63105;46.158;14.604;2023-03-31T15:40:02;8.40;;;3.42;;
46288;SDS011;63105;46.158;14.604;2023-03-31T15:42:32;10.07;;;4.40;;
46288;SDS011;63105;46.158;14.604;2023-03-31T15:47:58;10.50;;;5.80;;
46288;SDS011;63105;46.158;14.604;2023-03-31T15:50:25;13.68;;;5.75;;
46288;SDS011;63105;46.158;14.604;2023-03-31T15:52:53;11.88;;;4.78;;
46288;SDS011;63105;46.158;14.604;2023-03-31T15:57:47;8.85;;;4.30;;
46288;SDS011;63105;46.158;14.604;2023-03-31T16:00:39;9.38;;;4.63;;
46288;SDS011;63105;46.158;14.604;2023-03-31T16:03:21;9.38;;;3.88;;
46288;SDS011;63105;46.158;14.604;2023-03-31T16:08:17;10.20;;;3.80;;
46288;SDS011;63105;46.158;14.604;2023-03-31T16:10:43;8.25;;;3.70;;
46288;SDS011;63105;46.158;14.604;2023-03-31T16:13:09;8.35;;;3.83;;
46288;SDS011;63105;46.158;14.604;2023-03-31T16:15:38;6.38;;;3.00;;
46288;SDS011;63105;46.158;14.604;2023-03-31T16:18:09;7.22;;;3.30;;
46288;SDS011;63105;46.158;14.604;2023-03-31T16:20:40;8.77;;;3.38;;
46288;SDS011;63105;46.158;14.604;2023-03-31T16:23:20;7.32;;;3.63;;
46288;SDS011;63105;46.158;14.604;2023-03-31T16:25:47;8.48;;;4.13;;
46288;SDS011;63105;46.158;14.604;2023-03-31T16:28:13;7.72;;;3.78;;
46288;SDS011;63105;46.158;14.604;2023-03-31T16:30:42;7.18;;;3.60;;
46288;SDS011;63105;46.158;14.604;2023-03-31T16:33:09;11.13;;;4.80;;
46288;SDS011;63105;46.158;14.604;2023-03-31T16:35:36;6.50;;;2.92;;
46288;SDS011;63105;46.158;14.604;2023-03-31T16:38:02;8.30;;;3.53;;
46288;SDS011;63105;46.158;14.604;2023-03-31T16:40:28;8.40;;;3.30;;
46288;SDS011;63105;46.158;14.604;2023-03-31T16:43:11;7.20;;;3.38;;
46288;SDS011;63105;46.158;14.604;2023-03-31T16:45:36;9.85;;;4.10;;
46288;SDS011;63105;46.158;14.604;2023-03-31T16:48:02;8.50;;;3.92;;
46288;SDS011;63105;46.158;14.604;2023-03-31T16:50:27;10.85;;;4.03;;
46288;SDS011;63105;46.158;14.604;2023-03-31T16:52:53;8.85;;;4.28;;
46288;SDS011;63105;46.158;14.604;2023-03-31T16:55:18;11.25;;;4.68;;
46288;SDS011;63105;46.158;14.604;2023-03-31T16:57:43;10.90;;;5.38;;
46288;SDS011;63105;46.158;14.604;2023-03-31T17:00:09;11.55;;;5.10;;
46288;SDS011;63105;46.158;14.604;2023-03-31T17:02:34;7.88;;;3.90;;
46288;SDS011;63105;46.158;14.604;2023-03-31T17:05:00;7.43;;;3.65;;
46288;SDS011;63105;46.158;14.604;2023-03-31T17:07:25;7.25;;;3.20;;
46288;SDS011;63105;46.158;14.604;2023-03-31T17:09:50;9.90;;;4.35;;
46288;SDS011;63105;46.158;14.604;2023-03-31T17:12:16;7.85;;;4.28;;
46288;SDS011;63105;46.158;14.604;2023-03-31T17:14:41;8.38;;;4.88;;
46288;SDS011;63105;46.158;14.604;2023-03-31T17:17:06;9.63;;;5.20;;
46288;SDS011;63105;46.158;14.604;2023-03-31T17:19:31;8.20;;;4.63;;
46288;SDS011;63105;46.158;14.604;2023-03-31T17:21:57;11.15;;;5.32;;
46288;SDS011;63105;46.158;14.604;2023-03-31T17:24:25;10.10;;;4.72;;
46288;SDS011;63105;46.158;14.604;2023-03-31T17:26:51;11.27;;;5.53;;
46288;SDS011;63105;46.158;14.604;2023-03-31T17:29:16;9.60;;;5.53;;
46288;SDS011;63105;46.158;14.604;2023-03-31T17:31:42;8.95;;;4.85;;
46288;SDS011;63105;46.158;14.604;2023-03-31T17:34:07;10.60;;;5.10;;
46288;SDS011;63105;46.158;14.604;2023-03-31T17:36:33;8.27;;;4.70;;
46288;SDS011;63105;46.158;14.604;2023-03-31T17:38:58;8.88;;;4.45;;
46288;SDS011;63105;46.158;14.604;2023-03-31T17:41:24;9.20;;;4.30;;
46288;SDS011;63105;46.158;14.604;2023-03-31T17:43:49;7.25;;;4.00;;
46288;SDS011;63105;46.158;14.604;2023-03-31T17:46:15;8.30;;;4.30;;
46288;SDS011;63105;46.158;14.604;2023-03-31T17:48:41;9.43;;;4.72;;
46288;SDS011;63105;46.158;14.604;2023-03-31T17:51:08;7.03;;;4.47;;
46288;SDS011;63105;46.158;14.604;2023-03-31T17:53:34;7.43;;;4.13;;
46288;SDS011;63105;46.158;14.604;2023-03-31T17:56:00;8.25;;;4.32;;
46288;SDS011;63105;46.158;14.604;2023-03-31T17:58:26;7.70;;;4.07;;
46288;SDS011;63105;46.158;14.604;2023-03-31T18:00:52;8.02;;;3.95;;